Time;durP1;ratioP1;P1;durP2;ratioP2;P2;SDS_P1;SDS_P2;PMS_P1;PMS_P2;Temp;Humidity;BMP_temperature;BMP_pressure;BME280_temperature;BME280_humidity;BME280_pressure;Samples;Min_cycle;Max_cycle;Signal;HPM_P1;HPM_P2
2021/04/02 00:01:03;;;;;;;20.50;12.37;;;;;;;9.80;72.75;96288.20;1722655;83;21517;-83
2021/04/02 00:03:34;;;;;;;18.67;11.75;;;;;;;9.69;73.29;96288.83;1714852;83;21506;-83
2021/04/02 00:06:04;;;;;;;22.67;11.95;;;;;;;9.65;73.45;96279.88;1712055;83;21507;-83
2021/04/02 00:08:32;;;;;;;25.08;12.80;;;;;;;9.69;72.98;96283.53;1726515;82;21522;-83
2021/04/02 00:11:03;;;;;;;20.20;12.33;;;;;;;9.78;73.01;96287.69;1721674;82;21099;-83
2021/04/02 00:16:21;;;;;;;20.97;12.65;;;;;;;10.03;72.16;96274.19;1782470;79;22686;-83
2021/04/02 00:18:48;;;;;;;20.88;11.55;;;;;;;10.00;72.01;96274.75;1762625;80;21123;-83
2021/04/02 00:21:16;;;;;;;23.22;11.83;;;;;;;10.04;71.95;96274.97;1766926;80;21482;-83
2021/04/02 00:23:45;;;;;;;20.95;11.95;;;;;;;10.05;71.68;96272.58;1759239;81;21134;-83
2021/04/02 00:26:16;;;;;;;22.70;13.20;;;;;;;10.04;71.74;96265.70;1773504;80;21136;-83
2021/04/02 00:28:50;;;;;;;21.73;12.53;;;;;;;10.05;71.42;96260.13;1774255;80;21139;-83
2021/04/02 00:31:17;;;;;;;21.75;12.50;;;;;;;10.04;71.55;96259.08;1761401;80;21083;-83
2021/04/02 00:33:44;;;;;;;23.65;12.43;;;;;;;10.04;71.65;96257.22;1766388;80;21479;-83
2021/04/02 00:36:11;;;;;;;19.20;11.10;;;;;;;10.06;71.55;96253.75;1762586;80;21127;-83
2021/04/02 00:38:39;;;;;;;21.20;11.73;;;;;;;10.07;71.85;96252.67;1756836;81;21101;-83
2021/04/02 00:41:10;;;;;;;19.00;11.83;;;;;;;10.01;72.04;96248.52;1750501;80;21542;-83
2021/04/02 00:43:44;;;;;;;22.60;11.05;;;;;;;9.95;71.96;96248.31;1758923;80;21131;-83
2021/04/02 00:46:12;;;;;;;19.55;10.85;;;;;;;10.01;71.74;96251.17;1771718;80;21445;-83
2021/04/02 00:48:42;;;;;;;22.25;11.38;;;;;;;10.07;71.64;96246.05;1748853;80;21102;-83
2021/04/02 00:51:21;;;;;;;19.73;12.03;;;;;;;10.08;71.41;96244.98;1754199;79;21133;-82
2021/04/02 00:53:48;;;;;;;20.52;11.60;;;;;;;10.09;71.09;96246.55;1766866;80;21492;-83
2021/04/02 00:56:16;;;;;;;18.82;11.78;;;;;;;10.12;70.98;96246.52;1761732;80;21107;-83
2021/04/02 00:58:44;;;;;;;20.10;11.38;;;;;;;10.11;71.06;96244.41;1754121;81;21467;-82
2021/04/02 01:01:14;;;;;;;25.20;12.30;;;;;;;10.11;71.11;96235.67;1753698;80;21146;-82
2021/04/02 01:03:43;;;;;;;17.82;10.53;;;;;;;10.11;71.23;96241.76;1756362;81;21483;-83
2021/04/02 01:06:18;;;;;;;22.80;11.88;;;;;;;10.03;72.32;96241.08;1758244;81;21076;-83
2021/04/02 01:09:04;;;;;;;25.10;13.20;;;;;;;9.96;72.54;96247.24;1817038;79;22755;-82
2021/04/02 01:11:33;;;;;;;21.60;12.20;;;;;;;9.95;72.06;96246.98;1772704;80;21630;-82
2021/04/02 01:14:00;;;;;;;24.52;12.98;;;;;;;10.06;71.75;96249.78;1752120;82;21143;-82
2021/04/02 01:16:36;;;;;;;20.30;12.40;;;;;;;10.13;71.70;96252.06;1752191;81;21131;-83
2021/04/02 01:19:17;;;;;;;27.00;13.35;;;;;;;10.22;71.52;96254.38;1751699;82;21170;-82
2021/04/02 01:22:07;;;;;;;20.02;11.60;;;;;;;10.28;71.55;96245.85;1748163;82;21453;-82
2021/04/02 01:25:12;;;;;;;18.32;11.05;;;;;;;10.24;72.48;96250.13;1748915;82;21116;-83
2021/04/02 01:28:05;;;;;;;22.25;12.78;;;;;;;10.17;72.26;96249.66;1747443;82;21127;-83
2021/04/02 01:30:35;;;;;;;17.85;11.68;;;;;;;10.09;72.33;96253.17;1699922;84;21127;-83
2021/04/02 01:33:04;;;;;;;23.40;13.43;;;;;;;10.09;73.21;96252.39;1709072;82;21184;-83
2021/04/02 01:35:38;;;;;;;23.70;14.87;;;;;;;10.03;72.86;96246.91;1707178;82;21131;-83
2021/04/02 01:38:19;;;;;;;22.82;11.95;;;;;;;10.03;73.02;96253.00;1709556;84;21629;-83
2021/04/02 01:40:50;;;;;;;26.68;14.00;;;;;;;10.03;73.91;96250.89;1699772;83;21531;-84
2021/04/02 01:43:23;;;;;;;19.35;11.83;;;;;;;10.00;73.69;96260.19;1689905;84;21265;-84
2021/04/02 01:45:52;;;;;;;24.87;13.93;;;;;;;9.98;73.80;96263.63;1709488;84;21148;-84
2021/04/02 01:48:22;;;;;;;19.75;12.85;;;;;;;9.92;74.50;96270.61;1706285;83;21132;-84
2021/04/02 01:50:53;;;;;;;20.97;13.08;;;;;;;9.87;74.73;96275.97;1705648;82;21139;-83
2021/04/02 01:53:25;;;;;;;23.15;12.80;;;;;;;9.77;75.14;96276.84;1697151;84;21134;-84
2021/04/02 01:55:54;;;;;;;22.50;13.45;;;;;;;9.70;75.61;96261.28;1698856;83;21123;-84
2021/04/02 01:58:23;;;;;;;23.18;15.00;;;;;;;9.57;77.84;96273.06;1709053;84;21138;-83
2021/04/02 02:00:57;;;;;;;23.55;15.18;;;;;;;9.40;77.88;96270.31;1708552;84;21132;-83
2021/04/02 02:03:27;;;;;;;26.00;16.75;;;;;;;9.27;79.04;96268.84;1699555;84;21183;-83
2021/04/02 02:05:56;;;;;;;23.38;16.02;;;;;;;9.18;78.71;96278.71;1697352;84;21167;-83
2021/04/02 02:08:26;;;;;;;26.93;16.15;;;;;;;9.15;78.13;96293.03;1696843;84;21123;-83
2021/04/02 02:11:01;;;;;;;16.00;9.27;;;;;;;9.20;77.74;96267.86;1691815;84;21146;-83
2021/04/02 02:13:31;;;;;;;26.17;15.48;;;;;;;9.28;77.75;96272.53;1650005;86;21184;-83
2021/04/02 02:15:59;;;;;;;25.62;15.55;;;;;;;9.30;77.00;96275.71;1687766;85;21145;-84
2021/04/02 02:18:28;;;;;;;24.63;15.18;;;;;;;9.25;77.12;96274.41;1687411;85;21147;-83
2021/04/02 02:20:56;;;;;;;22.50;15.03;;;;;;;9.23;77.42;96283.95;1671146;85;21534;-83
2021/04/02 02:23:24;;;;;;;23.80;15.85;;;;;;;9.15;78.01;96281.13;1687794;84;21142;-83
2021/04/02 02:25:52;;;;;;;22.37;15.00;;;;;;;9.08;78.01;96287.25;1706583;84;21519;-83
2021/04/02 02:28:19;;;;;;;20.27;13.28;;;;;;;9.02;78.05;96287.83;1698063;84;21560;-83
2021/04/02 02:30:47;;;;;;;19.73;11.43;;;;;;;9.00;78.16;96299.19;1701596;84;21134;-83
2021/04/02 02:33:14;;;;;;;21.23;11.85;;;;;;;8.98;78.31;96293.92;1702547;84;21104;-83
2021/04/02 02:35:41;;;;;;;20.60;12.95;;;;;;;8.87;78.48;96282.12;1703461;84;21213;-83
2021/04/02 02:38:11;;;;;;;19.42;10.60;;;;;;;8.81;78.86;96293.77;1706759;84;21449;-83
2021/04/02 02:40:39;;;;;;;25.80;13.07;;;;;;;8.75;78.98;96288.27;1699642;84;21104;-83
2021/04/02 02:43:07;;;;;;;19.60;12.50;;;;;;;8.67;79.16;96296.77;1700040;84;21191;-83
2021/04/02 02:45:35;;;;;;;22.27;13.70;;;;;;;8.62;78.62;96300.23;1704591;84;21531;-83
2021/04/02 02:48:03;;;;;;;18.05;11.10;;;;;;;8.65;78.68;96305.50;1705566;84;21186;-83
2021/04/02 02:50:35;;;;;;;16.97;11.05;;;;;;;8.66;79.44;96299.16;1703687;84;21517;-83
2021/04/02 02:53:05;;;;;;;19.82;12.33;;;;;;;8.60;79.02;96298.41;1710390;82;21194;-83
2021/04/02 02:55:35;;;;;;;17.40;9.08;;;;;;;8.63;78.96;96301.03;1689600;84;21141;-83
2021/04/02 02:58:04;;;;;;;19.20;10.45;;;;;;;8.60;79.96;96291.01;1694133;84;21256;-83
2021/04/02 03:00:36;;;;;;;17.07;10.45;;;;;;;8.51;80.06;96291.31;1713463;84;21132;-83
2021/04/02 03:03:10;;;;;;;18.40;11.12;;;;;;;8.48;79.83;96291.86;1699623;84;21666;-83
2021/04/02 03:05:37;;;;;;;16.87;9.53;;;;;;;8.45;80.15;96299.80;1701040;84;21154;-83
2021/04/02 03:08:06;;;;;;;12.68;7.37;;;;;;;8.46;81.05;96297.95;1679935;84;21187;-83
2021/04/02 03:10:36;;;;;;;16.07;11.70;;;;;;;8.40;81.93;96288.45;1693779;84;21162;-83
2021/04/02 03:13:04;;;;;;;;;;;;;;;8.32;81.31;96291.91;1711560;84;21286;-83
2021/04/02 03:15:34;;;;;;;20.52;13.68;;;;;;;8.33;82.06;96289.52;1700950;84;20138;-83
2021/04/02 03:18:06;;;;;;;27.87;14.83;;;;;;;8.33;81.42;96290.05;1702559;84;21155;-83
2021/04/02 03:20:37;;;;;;;17.52;9.68;;;;;;;8.40;80.88;96293.20;1713851;82;21475;-83
2021/04/02 03:23:08;;;;;;;18.60;12.98;;;;;;;8.51;80.86;96295.27;1669168;84;21194;-83
2021/04/02 03:25:38;;;;;;;22.42;13.60;;;;;;;8.53;80.62;96299.75;1709167;84;21116;-83
2021/04/02 03:28:08;;;;;;;20.88;13.10;;;;;;;8.57;80.42;96288.89;1700617;84;21199;-83
2021/04/02 03:30:35;;;;;;;19.67;13.35;;;;;;;8.65;80.15;96290.18;1714547;82;21569;-83
2021/04/02 03:33:20;;;;;;;22.32;13.38;;;;;;;8.72;80.07;96283.52;1702184;84;21143;-83
2021/04/02 03:35:48;;;;;;;21.37;13.58;;;;;;;8.77;80.00;96282.71;1708701;82;21097;-84
2021/04/02 03:38:18;;;;;;;19.00;12.70;;;;;;;8.79;79.79;96282.69;1704141;84;21495;-83
2021/04/02 03:40:48;;;;;;;21.97;13.28;;;;;;;8.82;79.79;96280.02;1694413;84;21285;-83
2021/04/02 03:43:17;;;;;;;24.65;13.98;;;;;;;8.80;79.75;96288.23;1701753;84;21182;-83
2021/04/02 03:45:47;;;;;;;24.40;13.22;;;;;;;8.78;79.77;96283.75;1710691;84;21254;-83
2021/04/02 03:48:16;;;;;;;21.50;14.03;;;;;;;8.81;79.64;96288.48;1685985;84;21141;-83
2021/04/02 03:50:48;;;;;;;21.33;13.00;;;;;;;8.78;79.65;96286.40;1672632;85;21176;-83
2021/04/02 03:53:25;;;;;;;24.75;14.33;;;;;;;8.82;79.71;96287.95;1734455;82;21545;-83
2021/04/02 03:55:56;;;;;;;20.57;14.40;;;;;;;8.74;80.56;96290.66;1727768;82;21092;-83
2021/04/02 03:58:24;;;;;;;21.60;13.48;;;;;;;8.59;80.70;96292.86;1753025;81;21137;-83
2021/04/02 04:00:56;;;;;;;24.80;15.08;;;;;;;8.59;80.49;96290.22;1750527;81;21120;-83
2021/04/02 04:03:25;;;;;;;25.80;14.20;;;;;;;8.67;80.46;96294.66;1741279;82;21108;-83
2021/04/02 04:05:57;;;;;;;26.77;17.00;;;;;;;8.73;80.47;96292.26;1715556;82;21155;-83
2021/04/02 04:08:26;;;;;;;25.30;15.88;;;;;;;8.74;80.48;96296.48;1700861;84;21127;-83
2021/04/02 04:10:55;;;;;;;24.67;16.77;;;;;;;8.75;80.45;96297.52;1693145;82;21507;-83
2021/04/02 04:13:25;;;;;;;24.82;17.80;;;;;;;8.80;80.47;96301.45;1708324;84;21142;-83
2021/04/02 04:15:55;;;;;;;29.60;19.20;;;;;;;8.82;80.32;96298.00;1708555;84;21525;-83
2021/04/02 04:18:23;;;;;;;27.80;17.60;;;;;;;8.83;80.33;96306.18;1708690;84;21107;-83
2021/04/02 04:20:54;;;;;;;24.05;16.75;;;;;;;8.82;80.36;96303.28;1696002;84;21184;-83
2021/04/02 04:23:24;;;;;;;29.52;18.25;;;;;;;8.83;80.67;96307.50;1698555;84;21124;-83
2021/04/02 04:25:55;;;;;;;29.98;19.00;;;;;;;8.74;80.73;96305.20;1708447;84;21139;-83
2021/04/02 04:28:25;;;;;;;31.62;20.77;;;;;;;8.72;80.65;96307.83;1693235;84;21169;-83
2021/04/02 04:30:58;;;;;;;41.18;25.10;;;;;;;8.77;80.79;96309.14;1703486;82;21150;-83
2021/04/02 04:33:27;;;;;;;32.58;20.75;;;;;;;8.77;80.97;96313.89;1706202;82;21139;-82
2021/04/02 04:35:56;;;;;;;31.10;21.10;;;;;;;8.80;80.89;96309.38;1699634;82;21149;-83
2021/04/02 04:38:24;;;;;;;30.90;20.90;;;;;;;8.84;81.21;96306.44;1688329;82;21139;-83
2021/04/02 04:40:53;;;;;;;32.33;21.82;;;;;;;8.78;81.36;96308.86;1707032;82;21135;-83
2021/04/02 04:43:21;;;;;;;30.12;20.65;;;;;;;8.78;81.23;96312.04;1691731;84;21532;-83
2021/04/02 04:45:48;;;;;;;34.90;21.30;;;;;;;8.80;81.16;96313.34;1703352;82;21100;-83
2021/04/02 04:48:16;;;;;;;33.50;22.77;;;;;;;8.79;81.00;96319.70;1678844;84;21465;-83
2021/04/02 04:50:43;;;;;;;31.07;22.20;;;;;;;8.78;80.91;96314.15;1692089;84;21168;-83
2021/04/02 04:53:21;;;;;;;37.55;23.67;;;;;;;8.80;81.00;96319.95;1683746;84;21716;-83
2021/04/02 04:55:52;;;;;;;37.30;24.92;;;;;;;8.76;81.02;96325.53;1663093;84;21149;-82
2021/04/02 04:58:23;;;;;;;35.52;24.32;;;;;;;8.73;80.99;96326.09;1673768;84;21131;-82
2021/04/02 05:00:53;;;;;;;37.50;23.80;;;;;;;8.71;81.14;96330.83;1683077;84;21173;-82
2021/04/02 05:03:23;;;;;;;35.48;24.35;;;;;;;8.71;81.02;96332.68;1669755;84;21503;-82
2021/04/02 05:05:55;;;;;;;;;;;;;;;8.70;81.12;96338.50;1690841;84;21147;-82
2021/04/02 05:08:31;;;;;;;33.53;23.67;;;;;;;8.70;81.04;96337.17;1685430;84;20136;-82
2021/04/02 05:11:01;;;;;;;32.80;22.70;;;;;;;8.74;81.16;96340.88;1675799;84;21142;-82
2021/04/02 05:13:31;;;;;;;23.57;16.93;;;;;;;8.81;81.26;96355.10;1696824;83;21153;-82
2021/04/02 05:16:00;;;;;;;23.45;13.32;;;;;;;8.68;80.88;96353.84;1692800;84;21124;-83
2021/04/02 05:18:29;;;;;;;14.55;10.18;;;;;;;8.51;80.73;96362.11;1682852;84;21153;-82
2021/04/02 05:20:56;;;;;;;14.40;8.90;;;;;;;8.33;80.61;96370.61;1692494;84;21505;-82
2021/04/02 05:23:23;;;;;;;15.53;8.93;;;;;;;8.17;80.37;96383.06;1691417;83;21521;-82
2021/04/02 05:25:51;;;;;;;10.50;7.17;;;;;;;8.03;80.53;96391.28;1665211;84;21169;-82
2021/04/02 05:28:19;;;;;;;10.80;6.53;;;;;;;7.91;80.61;96402.12;1706079;84;21174;-82
2021/04/02 05:30:46;;;;;;;10.72;6.12;;;;;;;7.83;80.72;96404.48;1671737;84;21156;-82
2021/04/02 05:33:14;;;;;;;7.92;4.92;;;;;;;7.79;80.78;96410.04;1697184;84;21127;-82
2021/04/02 05:35:42;;;;;;;6.58;4.67;;;;;;;7.74;80.74;96412.13;1669556;84;21258;-82
2021/04/02 05:38:09;;;;;;;5.90;4.42;;;;;;;7.64;80.68;96410.30;1696699;84;21144;-82
2021/04/02 05:40:37;;;;;;;6.58;4.25;;;;;;;7.55;80.65;96422.43;1676060;85;21547;-82
2021/04/02 05:43:15;;;;;;;7.95;4.50;;;;;;;7.47;80.68;96427.45;1673834;84;21503;-82
2021/04/02 05:45:43;;;;;;;6.20;4.37;;;;;;;7.38;80.71;96419.25;1703768;84;21120;-83
2021/04/02 05:48:11;;;;;;;7.33;4.60;;;;;;;7.36;80.83;96427.43;1706193;84;21164;-82
2021/04/02 05:50:39;;;;;;;7.60;5.15;;;;;;;7.33;80.97;96426.64;1674180;84;21163;-83
2021/04/02 05:53:10;;;;;;;8.35;5.97;;;;;;;7.28;81.00;96423.19;1693907;84;21228;-83
2021/04/02 05:55:44;;;;;;;7.62;5.70;;;;;;;7.14;80.95;96434.23;1690143;84;21136;-82
2021/04/02 05:58:13;;;;;;;9.43;6.85;;;;;;;7.08;80.98;96441.87;1684867;84;21139;-82
2021/04/02 06:00:41;;;;;;;8.08;6.55;;;;;;;7.03;81.02;96451.59;1692443;84;21118;-82
2021/04/02 06:03:09;;;;;;;7.80;5.92;;;;;;;7.00;80.96;96456.86;1699569;84;21150;-82
2021/04/02 06:05:37;;;;;;;8.38;6.58;;;;;;;6.95;80.86;96458.17;1699907;84;21159;-82
2021/04/02 06:08:05;;;;;;;9.40;6.15;;;;;;;6.85;80.83;96456.28;1659274;84;21120;-82
2021/04/02 06:10:33;;;;;;;9.75;6.40;;;;;;;6.80;80.95;96461.54;1710995;83;21143;-82
2021/04/02 06:13:00;;;;;;;9.40;6.55;;;;;;;6.74;80.96;96465.70;1721477;83;21149;-82
2021/04/02 06:15:33;;;;;;;9.85;6.42;;;;;;;6.62;80.74;96469.89;1725733;83;21487;-82
2021/04/02 06:18:08;;;;;;;9.73;6.22;;;;;;;6.53;80.83;96482.74;1733009;82;21136;-82
2021/04/02 06:20:45;;;;;;;8.45;6.42;;;;;;;6.44;80.84;96484.78;1694079;83;21195;-83
2021/04/02 06:23:20;;;;;;;8.00;5.70;;;;;;;6.40;80.82;96502.15;1734965;83;21452;-83
2021/04/02 06:26:09;;;;;;;8.95;6.05;;;;;;;6.42;80.88;96507.42;1714404;83;21512;-83
2021/04/02 06:28:39;;;;;;;7.85;5.90;;;;;;;6.41;80.65;96516.38;1719046;83;21158;-83
2021/04/02 06:31:19;;;;;;;8.48;6.42;;;;;;;6.33;80.65;96514.20;1716025;83;21579;-83
2021/04/02 06:33:55;;;;;;;8.73;6.10;;;;;;;6.27;80.69;96517.06;1739523;81;21108;-83
2021/04/02 06:36:29;;;;;;;9.20;6.90;;;;;;;6.29;80.80;96512.33;1735058;81;21128;-83
2021/04/02 06:39:00;;;;;;;9.50;7.65;;;;;;;6.26;80.81;96509.69;1750854;81;21460;-83
2021/04/02 06:41:30;;;;;;;10.48;7.58;;;;;;;6.16;80.75;96504.34;1751219;81;21270;-83
2021/04/02 06:44:01;;;;;;;9.38;7.05;;;;;;;6.11;80.91;96499.05;1752015;81;21111;-83
2021/04/02 06:46:35;;;;;;;10.23;7.80;;;;;;;6.04;80.76;96503.72;1751874;81;21226;-83
2021/04/02 06:49:20;;;;;;;11.30;7.40;;;;;;;5.95;80.84;96502.88;1705471;84;21171;-83
2021/04/02 06:51:51;;;;;;;11.57;7.95;;;;;;;5.91;80.96;96505.75;1697485;84;21503;-83
2021/04/02 06:54:22;;;;;;;9.90;7.53;;;;;;;5.87;80.76;96499.35;1701864;84;21131;-83
2021/04/02 06:57:08;;;;;;;10.75;7.75;;;;;;;5.82;80.64;96504.58;1755818;81;21265;-83
2021/04/02 06:59:36;;;;;;;11.48;8.00;;;;;;;5.80;80.70;96506.67;1762767;81;21127;-83
2021/04/02 07:02:05;;;;;;;9.98;7.60;;;;;;;5.84;80.71;96516.96;1745436;81;21148;-83
2021/04/02 07:04:34;;;;;;;10.50;7.45;;;;;;;5.85;80.67;96518.55;1750868;81;21289;-83
2021/04/02 07:07:04;;;;;;;8.13;6.20;;;;;;;5.90;80.71;96521.23;1755765;81;21119;-83
2021/04/02 07:09:36;;;;;;;9.00;5.72;;;;;;;5.86;80.16;96514.87;1749325;81;21269;-83
2021/04/02 07:12:05;;;;;;;13.62;8.80;;;;;;;5.87;80.25;96524.34;1727348;82;21167;-83
2021/04/02 07:14:33;;;;;;;15.75;9.70;;;;;;;5.98;80.53;96521.31;1755599;81;21127;-83
2021/04/02 07:17:02;;;;;;;12.25;9.55;;;;;;;6.00;80.38;96525.80;1745081;81;21487;-83
2021/04/02 07:19:30;;;;;;;12.47;9.13;;;;;;;6.02;80.19;96525.55;1732546;82;21088;-83
2021/04/02 07:21:59;;;;;;;13.75;9.93;;;;;;;5.94;79.95;96521.55;1729979;82;21167;-83
2021/04/02 07:24:27;;;;;;;12.23;8.70;;;;;;;5.89;79.99;96520.14;1728230;82;21135;-83
2021/04/02 07:26:54;;;;;;;12.75;8.68;;;;;;;5.85;79.93;96526.44;1741614;81;21141;-83
2021/04/02 07:29:24;;;;;;;13.38;8.98;;;;;;;5.76;79.78;96528.44;1741105;82;21119;-83
2021/04/02 07:31:53;;;;;;;10.68;8.43;;;;;;;5.68;79.71;96526.28;1735875;81;21127;-83
2021/04/02 07:34:22;;;;;;;12.90;8.85;;;;;;;5.69;79.82;96522.08;1736008;81;21131;-83
2021/04/02 07:36:50;;;;;;;13.95;10.18;;;;;;;5.68;79.81;96523.13;1726318;81;21511;-83
2021/04/02 07:39:19;;;;;;;16.93;11.85;;;;;;;5.79;79.99;96518.77;1757670;81;21494;-83
2021/04/02 07:41:52;;;;;;;15.35;10.65;;;;;;;5.86;79.86;96531.97;1733508;81;21205;-83
2021/04/02 07:44:21;;;;;;;17.20;11.97;;;;;;;5.88;79.59;96540.92;1736885;82;21471;-83
2021/04/02 07:47:10;;;;;;;10.38;7.78;;;;;;;5.84;79.41;96543.27;1719098;82;21161;-83
2021/04/02 07:49:57;;;;;;;10.05;7.17;;;;;;;5.86;79.30;96545.12;1679152;84;21285;-83
2021/04/02 07:52:40;;;;;;;21.27;13.72;;;;;;;5.86;79.24;96556.17;1700818;84;21502;-82
2021/04/02 07:55:19;;;;;;;12.50;8.48;;;;;;;5.82;79.19;96554.56;1699404;84;21131;-83
2021/04/02 07:58:05;;;;;;;8.70;6.95;;;;;;;5.81;79.12;96562.70;1720885;82;21158;-83
2021/04/02 08:00:36;;;;;;;10.72;6.78;;;;;;;5.74;78.86;96562.89;1702369;84;21100;-83
2021/04/02 08:03:16;;;;;;;9.43;6.35;;;;;;;5.67;78.73;96570.20;1692573;84;21174;-83
2021/04/02 08:06:13;;;;;;;9.70;7.35;;;;;;;5.69;78.91;96566.80;1702530;84;21141;-83
2021/04/02 08:08:49;;;;;;;10.78;8.33;;;;;;;5.63;78.79;96588.80;1696431;84;21124;-82
2021/04/02 08:11:38;;;;;;;9.28;6.33;;;;;;;5.63;78.94;96580.42;1693866;84;21352;-82
2021/04/02 08:14:09;;;;;;;9.48;6.12;;;;;;;5.72;79.00;96587.33;1681615;84;21182;-82
2021/04/02 08:16:55;;;;;;;14.47;9.75;;;;;;;5.72;78.74;96587.86;1705935;84;21174;-82
2021/04/02 08:19:41;;;;;;;12.25;8.85;;;;;;;5.76;78.76;96597.62;1705557;84;21227;-82
2021/04/02 08:22:16;;;;;;;19.50;13.40;;;;;;;5.82;78.61;96602.44;1697851;84;21163;-82
2021/04/02 08:24:46;;;;;;;16.25;11.28;;;;;;;5.79;78.42;96599.78;1705733;84;21126;-82
2021/04/02 08:27:15;;;;;;;17.30;13.00;;;;;;;5.79;78.30;96605.05;1680053;85;21513;-82
2021/04/02 08:30:01;;;;;;;12.28;9.43;;;;;;;5.76;78.17;96609.46;1707663;84;21186;-82
2021/04/02 08:32:17;;;;;;;11.88;7.90;;;;;;;5.74;78.21;96608.92;1677417;85;21236;-82
2021/04/02 08:34:47;;;;;;;14.10;10.88;;;;;;;5.80;78.29;96604.00;1705211;84;21177;-82
2021/04/02 08:37:16;;;;;;;13.32;10.03;;;;;;;5.81;78.05;96601.64;1709835;84;21145;-82
2021/04/02 08:39:43;;;;;;;10.13;8.63;;;;;;;5.78;77.94;96610.03;1714216;84;21111;-82
2021/04/02 08:42:12;;;;;;;8.83;6.97;;;;;;;5.76;77.82;96606.83;1716396;84;21536;-82
2021/04/02 08:44:44;;;;;;;8.13;6.25;;;;;;;5.75;77.85;96618.39;1713334;84;21127;-82
2021/04/02 08:47:18;;;;;;;8.88;6.42;;;;;;;5.72;77.65;96614.95;1710425;84;21194;-82
2021/04/02 08:49:52;;;;;;;11.75;7.40;;;;;;;5.69;77.68;96619.39;1713681;84;21104;-82
2021/04/02 08:52:23;;;;;;;10.20;6.60;;;;;;;5.68;77.65;96620.44;1708413;84;21178;-82
2021/04/02 08:54:58;;;;;;;8.23;5.58;;;;;;;5.70;77.55;96616.24;1713994;84;21123;-82
2021/04/02 08:57:30;;;;;;;7.85;5.55;;;;;;;5.68;77.47;96617.02;1713433;84;21160;-82
2021/04/02 09:00:00;;;;;;;9.88;6.42;;;;;;;5.63;77.27;96619.05;1701753;84;21523;-82
2021/04/02 09:02:31;;;;;;;9.40;6.53;;;;;;;5.60;77.19;96617.71;1713192;83;21151;-82
2021/04/02 09:05:03;;;;;;;11.83;7.55;;;;;;;5.61;77.33;96620.61;1710235;84;21128;-82
2021/04/02 09:07:30;;;;;;;11.35;8.28;;;;;;;5.56;77.18;96621.09;1705950;84;21135;-82
2021/04/02 09:09:57;;;;;;;12.88;8.53;;;;;;;5.52;77.23;96625.25;1729096;81;21155;-82
2021/04/02 09:12:24;;;;;;;13.03;9.25;;;;;;;5.47;77.30;96632.55;1734685;82;21220;-82
2021/04/02 09:14:53;;;;;;;15.75;9.43;;;;;;;5.50;77.42;96636.55;1743531;81;21491;-82
2021/04/02 09:17:24;;;;;;;12.75;9.40;;;;;;;5.49;77.46;96636.23;1751416;81;21504;-82
2021/04/02 09:19:56;;;;;;;13.72;10.00;;;;;;;5.48;77.50;96634.66;1748975;82;21134;-82
2021/04/02 09:22:24;;;;;;;14.05;9.55;;;;;;;5.45;77.42;96643.03;1764048;81;21594;-82
2021/04/02 09:24:51;;;;;;;16.25;10.25;;;;;;;5.45;77.57;96647.77;1747684;82;21112;-82
2021/04/02 09:27:22;;;;;;;14.65;9.45;;;;;;;5.48;77.55;96646.48;1728928;82;21515;-82
2021/04/02 09:29:56;;;;;;;19.12;11.03;;;;;;;5.50;77.45;96647.85;1750348;81;21130;-82
2021/04/02 09:32:30;;;;;;;19.50;10.95;;;;;;;5.54;77.55;96656.04;1748130;81;21127;-82
2021/04/02 09:35:00;;;;;;;17.85;10.53;;;;;;;5.54;77.49;96651.58;1752680;81;21127;-82
2021/04/02 09:37:30;;;;;;;15.45;10.75;;;;;;;5.57;77.43;96651.60;1748844;81;21135;-82
2021/04/02 09:40:08;;;;;;;19.67;11.53;;;;;;;5.61;77.30;96651.38;1737145;81;21282;-82
2021/04/02 09:42:38;;;;;;;15.40;11.08;;;;;;;5.65;77.26;96655.13;1748204;81;21277;-82
2021/04/02 09:45:11;;;;;;;19.75;13.25;;;;;;;5.70;77.31;96651.23;1750063;81;21186;-82
2021/04/02 09:47:48;;;;;;;17.65;11.75;;;;;;;5.70;77.07;96649.91;1769392;81;21143;-82
2021/04/02 09:50:18;;;;;;;15.45;10.98;;;;;;;5.71;77.08;96644.93;1732881;81;21650;-82
2021/04/02 09:52:47;;;;;;;12.93;9.83;;;;;;;5.80;77.14;96648.72;1750170;81;21315;-82
2021/04/02 09:55:16;;;;;;;12.60;9.45;;;;;;;5.87;77.01;96646.68;1751024;82;21120;-82
2021/04/02 09:57:45;;;;;;;12.80;10.15;;;;;;;5.95;76.95;96651.55;1735818;81;21162;-82
2021/04/02 10:00:15;;;;;;;13.00;9.88;;;;;;;6.00;76.66;96647.37;1752891;81;21138;-82
2021/04/02 10:02:42;;;;;;;11.30;9.00;;;;;;;6.00;76.52;96648.16;1761185;81;21501;-82
2021/04/02 10:05:12;;;;;;;12.50;9.10;;;;;;;5.96;76.23;96643.12;1745854;82;21131;-82
2021/04/02 10:07:39;;;;;;;16.73;10.68;;;;;;;5.88;76.06;96642.21;1752673;82;21513;-82
2021/04/02 10:10:08;;;;;;;14.80;11.08;;;;;;;5.89;76.47;96645.91;1750180;81;21135;-82
2021/04/02 10:12:36;;;;;;;11.97;9.10;;;;;;;5.95;76.58;96637.08;1754941;81;21442;-82
2021/04/02 10:15:06;;;;;;;10.25;8.85;;;;;;;6.01;76.52;96639.75;1752357;81;21184;-82
2021/04/02 10:17:33;;;;;;;12.28;10.08;;;;;;;6.02;76.37;96642.66;1756253;81;21120;-82
2021/04/02 10:20:01;;;;;;;10.20;7.95;;;;;;;6.07;76.31;96644.03;1757037;81;21107;-82
2021/04/02 10:22:28;;;;;;;10.20;7.95;;;;;;;6.10;76.20;96636.95;1755581;81;21179;-82
2021/04/02 10:24:55;;;;;;;10.72;8.30;;;;;;;6.10;75.99;96634.32;1757593;81;21488;-82
2021/04/02 10:27:24;;;;;;;11.60;8.15;;;;;;;6.04;75.83;96637.93;1757222;81;21538;-82
2021/04/02 10:29:51;;;;;;;11.95;8.35;;;;;;;6.02;75.73;96635.55;1748581;81;21127;-82
2021/04/02 10:32:18;;;;;;;10.38;8.18;;;;;;;6.00;75.57;96633.69;1747064;81;21138;-82
2021/04/02 10:34:46;;;;;;;12.15;9.10;;;;;;;6.06;75.65;96634.03;1741194;81;21256;-82
2021/04/02 10:37:13;;;;;;;12.23;9.25;;;;;;;6.14;75.76;96632.25;1733043;81;21517;-82
2021/04/02 10:39:40;;;;;;;12.95;10.65;;;;;;;6.15;75.52;96636.98;1736025;81;21525;-82
2021/04/02 10:42:07;;;;;;;12.37;9.08;;;;;;;6.21;75.82;96634.70;1738979;81;21362;-82
2021/04/02 10:44:34;;;;;;;15.83;11.63;;;;;;;6.27;75.55;96638.95;1754448;81;21137;-82
2021/04/02 10:47:02;;;;;;;20.05;17.92;;;;;;;6.29;75.18;96636.86;1748492;81;21173;-82
2021/04/02 10:49:29;;;;;;;20.23;15.60;;;;;;;6.11;74.70;96635.39;1762237;81;21665;-82
2021/04/02 10:51:56;;;;;;;11.78;9.35;;;;;;;5.78;74.66;96632.92;1714093;82;21116;-82
2021/04/02 10:54:23;;;;;;;11.68;8.68;;;;;;;5.64;75.08;96639.08;1678562;85;21155;-82
2021/04/02 10:56:50;;;;;;;19.45;13.08;;;;;;;5.60;75.15;96641.90;1709905;83;21125;-82
2021/04/02 10:59:18;;;;;;;92.67;55.00;;;;;;;5.66;75.23;96640.41;1707096;84;21495;-82
2021/04/02 11:01:46;;;;;;;20.25;16.35;;;;;;;5.74;75.35;96639.17;1687718;84;21200;-82
2021/04/02 11:04:13;;;;;;;23.05;15.10;;;;;;;5.77;75.21;96643.14;1745187;81;21125;-82
2021/04/02 11:06:41;;;;;;;40.73;20.43;;;;;;;5.79;74.51;96642.39;1751540;81;21116;-82
2021/04/02 11:09:09;;;;;;;25.30;15.35;;;;;;;5.74;74.29;96647.58;1747438;81;21168;-82
2021/04/02 11:11:37;;;;;;;15.03;8.90;;;;;;;5.70;74.39;96647.28;1765137;80;21162;-82
2021/04/02 11:14:04;;;;;;;11.78;8.88;;;;;;;5.62;73.86;96642.45;1743005;81;21659;-82
2021/04/02 11:16:31;;;;;;;9.50;7.47;;;;;;;5.66;74.29;96646.98;1761581;81;21214;-82
2021/04/02 11:18:58;;;;;;;14.25;9.60;;;;;;;5.84;74.38;96646.39;1731891;81;21147;-82
2021/04/02 11:21:26;;;;;;;12.37;9.20;;;;;;;5.88;74.02;96644.84;1753145;81;21164;-82
2021/04/02 11:23:53;;;;;;;13.70;9.73;;;;;;;5.76;73.33;96638.40;1748664;81;21103;-82
2021/04/02 11:26:21;;;;;;;12.70;9.13;;;;;;;5.75;73.88;96643.39;1726827;81;21483;-82
2021/04/02 11:28:49;;;;;;;11.10;8.93;;;;;;;5.91;74.29;96636.48;1735043;81;21139;-82
2021/04/02 11:31:16;;;;;;;11.12;8.75;;;;;;;6.03;74.09;96630.55;1758589;81;21142;-82
2021/04/02 11:33:43;;;;;;;14.43;9.03;;;;;;;5.93;73.50;96631.27;1756167;81;21173;-82
2021/04/02 11:36:11;;;;;;;11.95;8.93;;;;;;;5.90;72.17;96633.05;1747264;81;21307;-82
2021/04/02 11:38:38;;;;;;;16.62;9.93;;;;;;;5.77;72.29;96627.36;1763613;81;21311;-82
2021/04/02 11:41:06;;;;;;;21.00;13.28;;;;;;;5.70;72.77;96625.45;1746635;81;21313;-82
2021/04/02 11:43:34;;;;;;;14.80;11.33;;;;;;;5.80;73.10;96627.67;1749328;81;21262;-82
2021/04/02 11:46:01;;;;;;;13.58;9.70;;;;;;;6.01;73.23;96623.44;1729879;81;21145;-82
2021/04/02 11:48:29;;;;;;;15.32;11.57;;;;;;;6.30;73.52;96623.17;1737167;81;21119;-82